Time;durP1;ratioP1;P1;durP2;ratioP2;P2;SDS_P1;SDS_P2;PMS_P1;PMS_P2;Temp;Humidity;BMP_temperature;BMP_pressure;BME280_temperature;BME280_humidity;BME280_pressure;Samples;Min_cycle;Max_cycle;Signal;HPM_P1;HPM_P2
2020/12/16 00:02:18;;;;;;;16.65;12.80;;;6.90;99.90;;;;;;5094209;28;20057;-75
2020/12/16 00:04:46;;;;;;;16.10;12.45;;;6.80;99.90;;;;;;5095198;28;20019;-75
2020/12/16 00:07:11;;;;;;;20.25;12.57;;;6.80;99.90;;;;;;5112546;28;20035;-75
2020/12/16 00:09:37;;;;;;;21.98;13.57;;;6.90;99.90;;;;;;5094025;28;20403;-74
2020/12/16 00:12:03;;;;;;;19.75;13.82;;;6.90;99.90;;;;;;5112419;28;20062;-74
2020/12/16 00:14:28;;;;;;;17.45;12.40;;;6.90;99.90;;;;;;5112987;28;20016;-74
2020/12/16 00:16:54;;;;;;;19.45;12.48;;;6.90;99.90;;;;;;5114139;28;20027;-73
2020/12/16 00:19:20;;;;;;;18.85;11.88;;;6.90;99.90;;;;;;5090445;28;20024;-75
2020/12/16 00:21:46;;;;;;;17.17;10.70;;;6.90;99.90;;;;;;5090275;28;20122;-75
2020/12/16 00:24:12;;;;;;;15.50;12.15;;;7.00;99.90;;;;;;5111164;28;20103;-75
2020/12/16 00:26:37;;;;;;;15.68;11.55;;;7.00;99.90;;;;;;5106889;28;20169;-76
2020/12/16 00:29:03;;;;;;;18.48;11.25;;;7.00;99.90;;;;;;5091455;28;20107;-75
2020/12/16 00:31:29;;;;;;;14.88;10.57;;;7.00;99.90;;;;;;5091561;28;20068;-73
2020/12/16 00:33:55;;;;;;;13.88;9.80;;;7.10;99.90;;;;;;5091944;28;20028;-75
2020/12/16 00:36:21;;;;;;;18.30;10.50;;;7.00;99.90;;;;;;5092488;28;20063;-74
2020/12/16 00:38:47;;;;;;;14.57;10.70;;;7.00;99.90;;;;;;5093124;28;20168;-73
2020/12/16 00:41:12;;;;;;;17.25;11.00;;;7.10;99.90;;;;;;5094683;28;20444;-72
2020/12/16 00:43:38;;;;;;;18.00;11.13;;;7.00;99.90;;;;;;5076521;28;20124;-72
2020/12/16 00:46:04;;;;;;;17.88;12.10;;;7.10;99.90;;;;;;5076505;28;20030;-72
2020/12/16 00:48:29;;;;;;;17.05;11.95;;;7.00;99.90;;;;;;5094346;28;20024;-72
2020/12/16 00:50:55;;;;;;;16.70;11.65;;;7.00;99.90;;;;;;5094254;28;20024;-72
2020/12/16 00:53:20;;;;;;;17.23;11.90;;;7.00;99.90;;;;;;5094177;28;20024;-72
2020/12/16 00:55:46;;;;;;;18.05;12.13;;;7.00;99.90;;;;;;5076372;28;20031;-72
2020/12/16 00:58:12;;;;;;;16.63;11.63;;;6.90;99.90;;;;;;5094448;28;20388;-72
2020/12/16 01:00:37;;;;;;;21.42;13.73;;;6.90;99.90;;;;;;5094048;28;20077;-73
2020/12/16 01:03:04;;;;;;;24.17;14.95;;;6.90;99.90;;;;;;5076258;28;20035;-72
2020/12/16 01:05:29;;;;;;;21.17;14.13;;;7.00;99.90;;;;;;5094279;28;20024;-73
2020/12/16 01:07:55;;;;;;;24.00;13.52;;;7.00;99.90;;;;;;5094237;28;20043;-73
2020/12/16 01:10:21;;;;;;;20.08;13.40;;;6.90;99.90;;;;;;5075396;28;20032;-72
2020/12/16 01:12:48;;;;;;;17.95;11.63;;;7.00;99.90;;;;;;5094279;28;20028;-72
2020/12/16 01:15:17;;;;;;;15.05;11.52;;;7.00;99.90;;;;;;5075752;28;20088;-72
2020/12/16 01:17:44;;;;;;;14.93;10.15;;;6.90;99.90;;;;;;5075744;28;20535;-72
2020/12/16 01:20:10;;;;;;;15.23;10.98;;;6.90;99.90;;;;;;5093657;28;20032;-72
2020/12/16 01:22:41;;;;;;;18.77;11.07;;;7.00;99.90;;;;;;5075216;28;20028;-73
2020/12/16 01:25:07;;;;;;;14.57;10.60;;;7.00;99.90;;;;;;5093935;28;20384;-73
2020/12/16 01:27:33;;;;;;;19.63;11.50;;;6.90;99.90;;;;;;5106789;28;20047;-72
2020/12/16 01:29:59;;;;;;;15.25;10.68;;;7.00;99.90;;;;;;5113836;28;20035;-73
2020/12/16 01:32:25;;;;;;;16.17;10.40;;;7.00;99.90;;;;;;5095648;28;20352;-72
2020/12/16 01:34:51;;;;;;;15.20;10.48;;;7.00;99.90;;;;;;5114155;28;20069;-72
2020/12/16 01:37:16;;;;;;;19.20;11.38;;;7.10;99.90;;;;;;5114068;28;20062;-72
2020/12/16 01:39:42;;;;;;;16.60;10.52;;;7.10;99.90;;;;;;5113154;28;20027;-72
2020/12/16 01:42:08;;;;;;;15.05;10.52;;;7.10;99.90;;;;;;5113960;28;20011;-72
2020/12/16 01:44:33;;;;;;;18.70;10.60;;;7.20;99.90;;;;;;5113938;28;20363;-72
2020/12/16 01:47:01;;;;;;;16.20;10.98;;;7.20;99.90;;;;;;5113909;28;20023;-72
2020/12/16 01:49:28;;;;;;;17.77;11.05;;;7.20;99.90;;;;;;5113473;28;20147;-72
2020/12/16 01:52:01;;;;;;;14.73;11.55;;;7.20;99.90;;;;;;5113585;28;20066;-72
2020/12/16 01:54:26;;;;;;;19.95;12.35;;;7.20;99.90;;;;;;5113618;28;20376;-73
2020/12/16 01:56:55;;;;;;;24.25;13.15;;;7.20;99.90;;;;;;5113634;28;20035;-72
2020/12/16 01:59:22;;;;;;;20.63;13.02;;;7.20;99.90;;;;;;5095330;28;20391;-72
2020/12/16 02:01:51;;;;;;;18.67;12.00;;;7.10;99.90;;;;;;5084849;28;20036;-72
2020/12/16 02:04:21;;;;;;;16.13;11.38;;;7.10;99.90;;;;;;5093223;28;20032;-73
2020/12/16 02:06:50;;;;;;;18.83;11.07;;;7.10;99.90;;;;;;5106472;28;20028;-72
2020/12/16 02:09:18;;;;;;;17.02;11.65;;;7.20;99.90;;;;;;5094762;28;20019;-72
2020/12/16 02:11:44;;;;;;;20.27;12.45;;;7.20;99.90;;;;;;5113140;28;20032;-72
2020/12/16 02:14:10;;;;;;;18.55;12.35;;;7.20;99.90;;;;;;5113524;28;20023;-72
2020/12/16 02:16:37;;;;;;;18.17;12.35;;;7.20;99.90;;;;;;5113196;28;20018;-72
2020/12/16 02:19:08;;;;;;;21.25;12.07;;;7.30;99.90;;;;;;5112783;28;20024;-72
2020/12/16 02:21:35;;;;;;;18.98;11.32;;;7.40;99.90;;;;;;5094776;28;20115;-72
2020/12/16 02:24:06;;;;;;;18.20;11.68;;;7.40;99.90;;;;;;5113421;28;20031;-72
2020/12/16 02:26:36;;;;;;;23.10;12.55;;;7.40;99.90;;;;;;5113164;28;20039;-72
2020/12/16 02:29:03;;;;;;;18.70;11.77;;;7.50;99.90;;;;;;5112714;28;20391;-73
2020/12/16 02:31:31;;;;;;;16.20;10.65;;;7.50;99.90;;;;;;5112882;28;20031;-72
2020/12/16 02:33:57;;;;;;;17.67;11.65;;;7.50;99.90;;;;;;5113082;28;20474;-73
2020/12/16 02:36:23;;;;;;;16.75;11.40;;;7.50;99.90;;;;;;5094779;28;20111;-72
2020/12/16 02:38:49;;;;;;;26.60;14.75;;;7.50;99.90;;;;;;5112891;28;20027;-73
2020/12/16 02:41:15;;;;;;;23.50;14.35;;;7.50;99.90;;;;;;5112939;28;20030;-72
2020/12/16 02:43:40;;;;;;;23.00;15.52;;;7.50;99.90;;;;;;5094693;28;20379;-72
2020/12/16 02:46:06;;;;;;;31.17;19.90;;;7.40;99.90;;;;;;5112676;28;20403;-72
2020/12/16 02:48:32;;;;;;;36.72;21.27;;;7.40;99.90;;;;;;5113106;28;20352;-72
2020/12/16 02:50:58;;;;;;;33.17;21.15;;;7.40;99.90;;;;;;5112561;28;20474;-72
2020/12/16 02:53:23;;;;;;;36.60;22.63;;;7.40;99.90;;;;;;5116737;28;20030;-72
2020/12/16 02:55:49;;;;;;;31.73;20.70;;;7.30;99.90;;;;;;5116939;28;20031;-72
2020/12/16 02:58:15;;;;;;;36.80;22.67;;;7.30;99.90;;;;;;5117092;28;20032;-72
2020/12/16 03:00:40;;;;;;;38.00;22.92;;;7.30;99.90;;;;;;5116973;28;20463;-72
2020/12/16 03:03:06;;;;;;;31.15;20.15;;;7.30;99.90;;;;;;5117068;28;20027;-73
2020/12/16 03:05:32;;;;;;;32.15;20.30;;;7.20;99.90;;;;;;5117235;28;20055;-72
2020/12/16 03:07:57;;;;;;;34.95;20.10;;;7.20;99.90;;;;;;5098335;28;20104;-72
2020/12/16 03:10:23;;;;;;;34.00;19.13;;;7.10;99.90;;;;;;5116935;28;20136;-72
2020/12/16 03:12:48;;;;;;;28.23;18.30;;;7.10;99.90;;;;;;5116866;28;20031;-73
2020/12/16 03:15:14;;;;;;;29.30;18.42;;;7.20;99.90;;;;;;5098375;28;20359;-73
2020/12/16 03:17:39;;;;;;;26.92;17.88;;;7.20;99.90;;;;;;5116817;28;20027;-73
2020/12/16 03:20:05;;;;;;;25.83;17.38;;;7.20;99.90;;;;;;5116690;28;20019;-73
2020/12/16 03:22:31;;;;;;;29.25;18.40;;;7.30;99.90;;;;;;5116734;28;20093;-72
2020/12/16 03:24:56;;;;;;;30.30;18.48;;;7.30;99.90;;;;;;5116242;28;20046;-73
2020/12/16 03:27:22;;;;;;;29.00;19.05;;;7.30;99.90;;;;;;5116545;28;20047;-72
2020/12/16 03:29:48;;;;;;;27.40;19.52;;;7.30;99.90;;;;;;5116084;28;20482;-72
2020/12/16 03:32:14;;;;;;;31.48;20.88;;;7.30;99.90;;;;;;5102809;28;20020;-72
2020/12/16 03:34:39;;;;;;;36.85;23.48;;;7.30;99.90;;;;;;5106334;28;20028;-72
2020/12/16 03:37:05;;;;;;;39.05;23.50;;;7.30;99.90;;;;;;5116305;28;20108;-72
2020/12/16 03:39:31;;;;;;;30.40;21.15;;;7.20;99.90;;;;;;5115965;28;20030;-72
2020/12/16 03:41:56;;;;;;;31.15;20.17;;;7.20;99.90;;;;;;5116225;28;20037;-72
2020/12/16 03:44:22;;;;;;;23.90;16.25;;;7.20;99.90;;;;;;5116473;28;20332;-72
2020/12/16 03:46:51;;;;;;;22.83;15.27;;;7.20;99.90;;;;;;5116214;28;20027;-72
2020/12/16 03:49:18;;;;;;;23.15;14.73;;;7.30;99.90;;;;;;5116016;28;20065;-72
2020/12/16 03:51:50;;;;;;;25.98;15.50;;;7.30;99.90;;;;;;5115883;28;20028;-72
2020/12/16 03:54:15;;;;;;;25.45;16.02;;;7.30;99.90;;;;;;5116166;28;20031;-72
2020/12/16 03:56:41;;;;;;;22.67;14.80;;;7.20;99.90;;;;;;5115978;28;20466;-72
2020/12/16 03:59:07;;;;;;;24.15;15.60;;;7.20;99.90;;;;;;5116090;28;20073;-72
2020/12/16 04:01:32;;;;;;;18.65;13.43;;;7.20;99.90;;;;;;5107644;28;20036;-72
2020/12/16 04:03:58;;;;;;;20.15;14.40;;;7.20;99.90;;;;;;5095090;28;20029;-72
2020/12/16 04:06:23;;;;;;;15.20;12.13;;;7.20;99.90;;;;;;5095429;28;20068;-73
2020/12/16 04:08:49;;;;;;;19.63;11.52;;;7.20;99.90;;;;;;5114571;28;20043;-72
2020/12/16 04:11:17;;;;;;;14.68;11.57;;;7.20;99.90;;;;;;5115513;28;20043;-72
2020/12/16 04:13:43;;;;;;;23.17;15.27;;;7.20;99.90;;;;;;5115706;28;20028;-72
2020/12/16 04:16:15;;;;;;;18.42;13.40;;;7.20;99.90;;;;;;5115652;28;20028;-72
2020/12/16 04:18:41;;;;;;;23.10;13.57;;;7.20;99.90;;;;;;5114809;28;20035;-72
2020/12/16 04:21:07;;;;;;;18.02;12.13;;;7.20;99.90;;;;;;5115518;28;20608;-73
2020/12/16 04:23:34;;;;;;;19.50;12.00;;;7.20;99.90;;;;;;5115572;28;20032;-72
2020/12/16 04:26:00;;;;;;;15.95;11.25;;;7.20;99.90;;;;;;5115565;28;20113;-73
2020/12/16 04:28:26;;;;;;;17.52;12.20;;;7.20;99.90;;;;;;5114993;28;20493;-72
2020/12/16 04:30:52;;;;;;;22.25;12.20;;;7.20;99.90;;;;;;5113290;28;20036;-73
2020/12/16 04:33:17;;;;;;;18.95;13.15;;;7.20;99.90;;;;;;5095033;28;20031;-73
2020/12/16 04:35:43;;;;;;;21.13;12.65;;;7.20;99.90;;;;;;5106348;28;20036;-73
2020/12/16 04:38:09;;;;;;;18.85;12.52;;;7.10;99.90;;;;;;5115313;28;20103;-73
2020/12/16 04:40:34;;;;;;;14.80;10.77;;;7.20;99.90;;;;;;5115409;28;20023;-72
2020/12/16 04:43:06;;;;;;;16.15;11.98;;;7.20;99.90;;;;;;5114895;28;20028;-72
2020/12/16 04:45:33;;;;;;;17.60;11.80;;;7.20;99.90;;;;;;5114826;28;20478;-72
2020/12/16 04:47:59;;;;;;;15.57;11.68;;;7.20;99.90;;;;;;5096484;28;20031;-72
2020/12/16 04:50:25;;;;;;;14.98;11.00;;;7.20;99.90;;;;;;5113945;28;20028;-72
2020/12/16 04:52:52;;;;;;;18.67;11.10;;;7.20;99.90;;;;;;5114407;28;20024;-72
2020/12/16 04:55:19;;;;;;;18.38;10.75;;;7.20;99.90;;;;;;5113895;28;20072;-72
2020/12/16 04:57:49;;;;;;;17.75;10.77;;;7.20;99.90;;;;;;5114130;28;20023;-73
2020/12/16 05:00:15;;;;;;;20.30;11.35;;;7.20;99.90;;;;;;5096366;28;20024;-72
2020/12/16 05:02:54;;;;;;;19.48;11.15;;;7.30;99.90;;;;;;5082837;28;20386;-73
2020/12/16 05:05:19;;;;;;;19.90;12.73;;;7.30;99.90;;;;;;5114713;28;20533;-73
2020/12/16 05:07:48;;;;;;;16.45;12.40;;;7.30;99.90;;;;;;5114301;28;20023;-73
2020/12/16 05:10:15;;;;;;;17.55;11.85;;;7.20;99.90;;;;;;5114592;28;20019;-72
2020/12/16 05:12:41;;;;;;;17.15;11.48;;;7.20;99.90;;;;;;5114370;28;20543;-72
2020/12/16 05:15:21;;;;;;;15.40;10.98;;;7.20;99.90;;;;;;5113786;28;20102;-73
2020/12/16 05:18:14;;;;;;;18.52;11.85;;;7.20;99.90;;;;;;5114095;28;20479;-73
2020/12/16 05:20:49;;;;;;;20.23;12.85;;;7.20;99.90;;;;;;5114235;28;20015;-73
2020/12/16 05:23:15;;;;;;;18.83;12.25;;;7.20;99.90;;;;;;5114167;28;20083;-73
2020/12/16 05:26:00;;;;;;;21.42;13.27;;;7.10;99.90;;;;;;5114626;28;20035;-73
2020/12/16 05:28:32;;;;;;;22.98;13.10;;;7.10;99.90;;;;;;5114297;28;20088;-73
2020/12/16 05:31:02;;;;;;;18.63;12.38;;;7.20;99.90;;;;;;5110934;28;20028;-73
2020/12/16 05:33:28;;;;;;;17.00;12.00;;;7.20;99.90;;;;;;5093970;28;20498;-73
2020/12/16 05:35:55;;;;;;;16.45;12.07;;;7.10;99.90;;;;;;5093701;28;20468;-72
2020/12/16 05:38:21;;;;;;;18.50;11.48;;;7.20;99.90;;;;;;5093786;28;20529;-73
2020/12/16 05:40:47;;;;;;;19.77;10.95;;;7.10;99.90;;;;;;5096727;28;20032;-73
2020/12/16 05:43:25;;;;;;;17.05;11.32;;;7.20;99.90;;;;;;5114030;28;20031;-73
2020/12/16 05:45:51;;;;;;;15.20;11.18;;;7.20;99.90;;;;;;5095687;28;20024;-73
2020/12/16 05:48:17;;;;;;;22.13;11.23;;;7.20;99.90;;;;;;5095412;28;20084;-73
2020/12/16 05:50:53;;;;;;;18.45;11.32;;;7.20;99.90;;;;;;5113764;28;20398;-73
2020/12/16 05:53:24;;;;;;;14.38;10.82;;;7.30;99.90;;;;;;5075225;28;20043;-72
2020/12/16 05:56:00;;;;;;;15.27;10.25;;;7.30;99.90;;;;;;5093269;28;20028;-73
2020/12/16 05:58:31;;;;;;;16.00;10.68;;;7.30;99.90;;;;;;5107089;28;20034;-73
2020/12/16 06:00:58;;;;;;;18.77;11.50;;;7.30;99.90;;;;;;5113586;28;20035;-72
2020/12/16 06:03:30;;;;;;;16.80;11.32;;;7.40;99.90;;;;;;5112845;28;20076;-73
2020/12/16 06:06:08;;;;;;;18.65;11.65;;;7.40;99.90;;;;;;5112222;28;20019;-74
2020/12/16 06:08:35;;;;;;;16.60;11.55;;;7.40;99.90;;;;;;5093918;28;20024;-73
2020/12/16 06:11:01;;;;;;;19.90;11.43;;;7.40;99.90;;;;;;5112858;28;20513;-73
2020/12/16 06:13:27;;;;;;;23.15;12.05;;;7.40;99.90;;;;;;5112825;28;20019;-73
2020/12/16 06:15:56;;;;;;;20.83;11.50;;;7.40;99.90;;;;;;5112603;28;20030;-73
2020/12/16 06:18:44;;;;;;;17.65;11.93;;;7.40;99.90;;;;;;5113212;28;20460;-73
2020/12/16 06:21:12;;;;;;;17.35;11.93;;;7.40;99.90;;;;;;5112797;28;20027;-73
2020/12/16 06:23:43;;;;;;;15.07;10.70;;;7.40;99.90;;;;;;5094825;28;20023;-73
2020/12/16 06:26:10;;;;;;;18.33;11.85;;;7.40;99.90;;;;;;5112843;28;20036;-73
2020/12/16 06:28:36;;;;;;;20.40;12.32;;;7.30;99.90;;;;;;5112845;28;20028;-73
2020/12/16 06:31:18;;;;;;;22.00;13.23;;;7.30;99.90;;;;;;5094764;28;20421;-73
2020/12/16 06:34:13;;;;;;;20.40;13.15;;;7.20;99.90;;;;;;5112448;28;20068;-72
2020/12/16 06:36:41;;;;;;;23.08;13.50;;;7.10;99.90;;;;;;5112849;28;20467;-73
2020/12/16 06:39:15;;;;;;;24.35;14.85;;;7.10;99.90;;;;;;5112381;28;20026;-72
2020/12/16 06:41:55;;;;;;;21.90;14.60;;;7.10;99.90;;;;;;5094409;28;20043;-72
2020/12/16 06:44:21;;;;;;;20.35;13.88;;;7.10;99.90;;;;;;5112979;28;20020;-73
2020/12/16 06:46:49;;;;;;;20.45;14.60;;;7.10;99.90;;;;;;5112916;28;20068;-73
2020/12/16 06:49:18;;;;;;;22.98;13.52;;;7.10;99.90;;;;;;5100996;28;20055;-73
2020/12/16 06:51:45;;;;;;;23.52;13.13;;;7.20;99.90;;;;;;5094574;28;20081;-73
2020/12/16 06:54:16;;;;;;;25.67;15.32;;;7.10;99.90;;;;;;5113186;28;20035;-73
2020/12/16 06:56:44;;;;;;;25.70;16.55;;;7.10;99.90;;;;;;5113042;28;20024;-73
2020/12/16 06:59:12;;;;;;;25.80;15.70;;;7.00;99.90;;;;;;5112701;28;20597;-73
2020/12/16 07:01:39;;;;;;;40.03;19.80;;;7.00;99.90;;;;;;5112927;28;20367;-73
2020/12/16 07:04:10;;;;;;;40.47;20.67;;;7.10;99.90;;;;;;5112634;28;20024;-73
2020/12/16 07:06:39;;;;;;;52.92;20.88;;;7.10;99.90;;;;;;5112966;28;20500;-73
2020/12/16 07:09:14;;;;;;;38.25;18.80;;;7.10;99.90;;;;;;5112789;28;20517;-73
2020/12/16 07:11:47;;;;;;;42.58;19.20;;;7.20;99.90;;;;;;5112769;28;20027;-73
2020/12/16 07:14:15;;;;;;;43.15;21.38;;;7.20;99.90;;;;;;5112382;28;20023;-73
2020/12/16 07:16:42;;;;;;;44.45;19.95;;;7.20;99.90;;;;;;5112527;28;20020;-73
2020/12/16 07:19:08;;;;;;;49.70;20.52;;;7.20;99.90;;;;;;5112363;28;20020;-73
2020/12/16 07:21:36;;;;;;;86.55;31.27;;;7.20;99.90;;;;;;5094279;28;20348;-72
2020/12/16 07:24:19;;;;;;;105.60;37.05;;;7.20;99.90;;;;;;5112356;28;20414;-72
2020/12/16 07:26:56;;;;;;;83.07;32.72;;;7.20;99.90;;;;;;5088053;28;20407;-73
2020/12/16 07:29:28;;;;;;;63.35;26.27;;;7.20;99.90;;;;;;5091894;28;20081;-73
2020/12/16 07:32:02;;;;;;;52.25;26.58;;;7.20;99.90;;;;;;5092077;28;20540;-73
2020/12/16 07:34:29;;;;;;;43.45;23.73;;;7.20;99.90;;;;;;5092217;28;20055;-73
2020/12/16 07:37:01;;;;;;;36.17;21.00;;;7.10;99.90;;;;;;5074137;28;20399;-72
2020/12/16 07:39:28;;;;;;;29.80;17.88;;;7.10;99.90;;;;;;5075158;28;20020;-72
2020/12/16 07:41:58;;;;;;;33.58;18.50;;;7.10;99.90;;;;;;5096023;28;20476;-72
2020/12/16 07:44:24;;;;;;;35.00;20.90;;;7.10;99.90;;;;;;5077552;28;20225;-72
2020/12/16 07:47:01;;;;;;;46.80;23.85;;;7.10;99.90;;;;;;5095416;28;20110;-72
2020/12/16 07:49:29;;;;;;;57.53;24.63;;;7.20;99.90;;;;;;5094991;28;20012;-72
2020/12/16 07:52:02;;;;;;;50.35;23.50;;;7.20;99.90;;;;;;5095470;28;20111;-72
2020/12/16 07:54:29;;;;;;;43.88;22.55;;;7.20;99.90;;;;;;5077152;28;20073;-72
2020/12/16 07:56:55;;;;;;;46.53;22.67;;;7.20;99.90;;;;;;5076850;28;20598;-72
2020/12/16 07:59:25;;;;;;;44.08;21.92;;;7.20;99.90;;;;;;5077015;28;20080;-72
2020/12/16 08:01:53;;;;;;;33.42;19.30;;;7.30;99.90;;;;;;5068840;28;20028;-73
2020/12/16 08:04:18;;;;;;;32.53;19.10;;;7.20;99.90;;;;;;5070653;28;20040;-72
2020/12/16 08:06:44;;;;;;;39.60;20.67;;;7.30;99.90;;;;;;5071398;28;20501;-72
2020/12/16 08:09:10;;;;;;;33.63;18.92;;;7.30;99.90;;;;;;5092508;28;20104;-73
2020/12/16 08:11:35;;;;;;;34.42;20.45;;;7.30;99.90;;;;;;5093732;28;20026;-72
2020/12/16 08:14:06;;;;;;;86.47;38.65;;;7.30;99.90;;;;;;5094502;28;20074;-73
2020/12/16 08:16:34;;;;;;;93.53;39.00;;;7.30;99.90;;;;;;5094308;28;20436;-72
2020/12/16 08:19:00;;;;;;;96.40;40.13;;;7.30;99.90;;;;;;5093888;28;20024;-72
2020/12/16 08:21:25;;;;;;;86.13;35.25;;;7.20;99.90;;;;;;5094593;28;20020;-73
2020/12/16 08:23:53;;;;;;;61.47;31.08;;;7.30;99.90;;;;;;5094678;28;20030;-72
2020/12/16 08:26:20;;;;;;;43.40;23.80;;;7.30;99.90;;;;;;5096610;28;20027;-73
2020/12/16 08:28:46;;;;;;;51.35;26.15;;;7.30;99.90;;;;;;5114022;28;20049;-73
2020/12/16 08:31:13;;;;;;;45.30;25.02;;;7.30;99.90;;;;;;5096449;28;20027;-73
2020/12/16 08:33:43;;;;;;;37.22;23.27;;;7.30;99.90;;;;;;5114434;28;20427;-73
2020/12/16 08:36:09;;;;;;;41.05;22.63;;;7.30;99.90;;;;;;5114407;28;20099;-73
2020/12/16 08:38:43;;;;;;;40.60;23.90;;;7.30;99.90;;;;;;5096333;28;20081;-73
2020/12/16 08:41:12;;;;;;;38.50;22.02;;;7.30;99.90;;;;;;5114116;28;20035;-72
2020/12/16 08:43:42;;;;;;;36.83;22.45;;;7.30;99.90;;;;;;5096204;28;20055;-73
2020/12/16 08:46:11;;;;;;;34.75;21.92;;;7.30;99.90;;;;;;5113911;28;20020;-73
2020/12/16 08:48:51;;;;;;;36.75;23.00;;;7.30;99.90;;;;;;5113961;28;20048;-73
2020/12/16 08:51:37;;;;;;;35.67;23.00;;;7.40;99.90;;;;;;5095373;28;20023;-73
2020/12/16 08:54:08;;;;;;;48.30;27.58;;;7.40;99.90;;;;;;5107661;28;20028;-72
2020/12/16 08:56:36;;;;;;;45.15;28.08;;;7.40;99.90;;;;;;5092625;28;20032;-73
2020/12/16 08:59:15;;;;;;;40.55;26.75;;;7.40;99.90;;;;;;5094709;28;20027;-72
2020/12/16 09:01:46;;;;;;;50.95;29.08;;;7.40;99.90;;;;;;5113471;28;20027;-72
2020/12/16 09:04:26;;;;;;;55.92;30.13;;;7.40;99.90;;;;;;5113541;28;20027;-72
2020/12/16 09:07:04;;;;;;;58.45;29.83;;;7.50;99.90;;;;;;5113904;28;20028;-73
2020/12/16 09:09:30;;;;;;;57.75;30.70;;;7.50;99.90;;;;;;5113254;28;20049;-72
2020/12/16 09:11:57;;;;;;;52.90;31.27;;;7.50;99.90;;;;;;5095114;28;20486;-72
2020/12/16 09:14:24;;;;;;;52.10;31.45;;;7.60;99.90;;;;;;5095205;28;20024;-72
2020/12/16 09:16:50;;;;;;;60.58;33.15;;;7.60;99.90;;;;;;5094683;28;20020;-72
2020/12/16 09:19:26;;;;;;;50.38;31.35;;;7.70;99.90;;;;;;5095062;28;20026;-72
2020/12/16 09:21:52;;;;;;;41.72;26.73;;;7.70;99.90;;;;;;5113147;28;20026;-72
2020/12/16 09:24:23;;;;;;;34.42;24.40;;;7.80;99.90;;;;;;5107556;28;20063;-72
2020/12/16 09:26:51;;;;;;;44.10;25.92;;;7.80;99.90;;;;;;5100130;28;20048;-71
2020/12/16 09:29:22;;;;;;;43.47;26.23;;;7.80;99.90;;;;;;5065896;28;20043;-72
2020/12/16 09:31:50;;;;;;;50.70;25.02;;;7.80;99.90;;;;;;5061670;28;20050;-72
2020/12/16 09:34:18;;;;;;;34.17;23.77;;;7.80;99.90;;;;;;5073577;28;20024;-72
2020/12/16 09:36:45;;;;;;;38.95;24.02;;;7.80;99.90;;;;;;5073840;28;20560;-79
2020/12/16 09:39:11;;;;;;;43.90;25.85;;;7.90;99.90;;;;;;5074992;28;20028;-79
2020/12/16 09:41:48;;;;;;;39.65;25.70;;;7.90;99.90;;;;;;5075197;28;20023;-80
2020/12/16 09:44:28;;;;;;;35.65;23.52;;;7.90;99.90;;;;;;5075108;28;20024;-80
2020/12/16 09:47:08;;;;;;;34.50;23.48;;;8.00;99.90;;;;;;5093282;28;20024;-79
2020/12/16 09:49:34;;;;;;;42.20;26.92;;;8.00;99.90;;;;;;5066951;28;20039;-80
2020/12/16 09:51:59;;;;;;;38.22;25.50;;;8.10;99.90;;;;;;5093193;28;20028;-80
2020/12/16 09:54:30;;;;;;;38.85;26.30;;;8.10;99.90;;;;;;5092927;28;20395;-80
2020/12/16 09:57:06;;;;;;;37.40;24.40;;;8.20;99.90;;;;;;5084718;28;20103;-80
2020/12/16 09:59:32;;;;;;;38.13;24.25;;;8.20;99.90;;;;;;5070787;28;20016;-79
2020/12/16 10:01:57;;;;;;;37.55;24.63;;;8.30;99.90;;;;;;5092707;28;20511;-79
2020/12/16 10:04:23;;;;;;;40.00;25.30;;;8.40;99.90;;;;;;5093201;28;20598;-79
2020/12/16 10:06:48;;;;;;;37.22;24.20;;;8.50;99.90;;;;;;5074711;28;20067;-79
2020/12/16 10:09:14;;;;;;;39.08;24.50;;;8.70;99.90;;;;;;5074460;28;20625;-79
2020/12/16 10:11:40;;;;;;;33.30;22.45;;;8.70;99.90;;;;;;5074577;28;20161;-79
2020/12/16 10:14:05;;;;;;;33.20;21.52;;;8.80;99.90;;;;;;5092766;28;20031;-80
2020/12/16 10:16:32;;;;;;;33.90;22.77;;;8.90;99.90;;;;;;5074442;28;20008;-78
2020/12/16 10:18:59;;;;;;;27.05;18.65;;;8.90;99.90;;;;;;5092367;28;20023;-79
2020/12/16 10:21:25;;;;;;;31.80;20.23;;;8.90;99.90;;;;;;5091505;28;20024;-74
2020/12/16 10:23:51;;;;;;;28.60;19.98;;;9.00;99.90;;;;;;5073222;28;20386;-81
2020/12/16 10:26:16;;;;;;;35.15;22.42;;;9.10;99.90;;;;;;5084660;28;20046;-81
2020/12/16 10:28:42;;;;;;;25.58;16.80;;;9.20;99.90;;;;;;5071155;28;20123;-76
2020/12/16 10:31:07;;;;;;;23.63;13.65;;;9.10;99.90;;;;;;5071851;28;20032;-76
2020/12/16 10:33:33;;;;;;;25.60;16.55;;;9.30;99.90;;;;;;5090484;28;20050;-76
2020/12/16 10:35:59;;;;;;;37.45;21.40;;;9.40;99.90;;;;;;5090231;28;20059;-81
2020/12/16 10:38:24;;;;;;;34.92;23.95;;;9.30;99.90;;;;;;5090404;28;20055;-80
2020/12/16 10:40:50;;;;;;;44.65;26.70;;;9.00;99.90;;;;;;5089893;28;20567;-80
2020/12/16 10:43:16;;;;;;;39.03;26.10;;;8.90;99.90;;;;;;5091199;28;20491;-80
2020/12/16 10:45:41;;;;;;;43.40;28.23;;;8.80;99.90;;;;;;5091414;28;20024;-80
2020/12/16 10:48:07;;;;;;;52.22;31.10;;;8.80;99.90;;;;;;5072699;28;20036;-80
2020/12/16 10:50:33;;;;;;;51.15;32.22;;;8.90;99.90;;;;;;5091485;28;20044;-80
2020/12/16 10:52:59;;;;;;;49.65;31.13;;;8.80;99.90;;;;;;5073070;28;20390;-81
2020/12/16 10:55:25;;;;;;;50.95;32.72;;;8.80;99.90;;;;;;5072129;28;20507;-81
2020/12/16 10:57:52;;;;;;;63.70;37.45;;;8.80;99.90;;;;;;5089635;28;20024;-80
2020/12/16 11:00:18;;;;;;;56.90;36.67;;;8.80;99.90;;;;;;5063682;28;20127;-80
2020/12/16 11:02:44;;;;;;;52.55;35.15;;;8.80;99.90;;;;;;5088011;28;20043;-81
2020/12/16 11:05:10;;;;;;;57.22;37.00;;;8.70;99.90;;;;;;5089894;28;20028;-81
2020/12/16 11:07:35;;;;;;;61.45;38.40;;;8.70;99.90;;;;;;5089272;28;20032;-81
2020/12/16 11:10:01;;;;;;;54.20;36.47;;;8.80;99.90;;;;;;5090432;28;20114;-81
2020/12/16 11:12:27;;;;;;;57.00;36.83;;;8.70;99.90;;;;;;5072132;28;21007;-82
2020/12/16 11:14:52;;;;;;;56.55;34.30;;;8.80;99.90;;;;;;5095109;28;20020;-81
2020/12/16 11:17:18;;;;;;;56.97;37.55;;;8.80;99.90;;;;;;5077307;28;20151;-81
2020/12/16 11:19:44;;;;;;;56.83;37.13;;;8.80;99.90;;;;;;5075397;28;20060;-81
2020/12/16 11:22:10;;;;;;;53.70;36.03;;;8.70;99.90;;;;;;5090386;28;20127;-80
2020/12/16 11:24:35;;;;;;;60.67;35.80;;;8.70;99.90;;;;;;5093334;28;20020;-81
2020/12/16 11:27:01;;;;;;;56.50;37.38;;;8.60;99.90;;;;;;5101895;28;20392;-81
2020/12/16 11:29:27;;;;;;;63.08;39.30;;;8.70;99.90;;;;;;5096809;28;20040;-81
2020/12/16 11:31:55;;;;;;;69.88;42.10;;;8.70;99.90;;;;;;5097018;28;20368;-81
2020/12/16 11:34:25;;;;;;;63.47;38.17;;;8.70;99.90;;;;;;5115220;28;20027;-82
2020/12/16 11:36:53;;;;;;;61.42;39.72;;;8.70;99.90;;;;;;5090146;28;20024;-82
2020/12/16 11:39:20;;;;;;;69.47;45.38;;;8.70;99.90;;;;;;5115448;28;20035;-80
2020/12/16 11:41:48;;;;;;;75.20;47.78;;;8.70;99.90;;;;;;5114787;28;20055;-81
2020/12/16 11:44:15;;;;;;;76.18;48.72;;;8.80;99.90;;;;;;5115435;28;20107;-80
2020/12/16 11:46:41;;;;;;;75.40;49.55;;;8.80;99.90;;;;;;5097017;28;20027;-81
2020/12/16 11:49:07;;;;;;;79.25;48.90;;;8.80;99.90;;;;;;5115126;28;20030;-81
2020/12/16 11:51:32;;;;;;;78.35;50.60;;;8.90;99.90;;;;;;5115082;28;20055;-81
2020/12/16 11:53:58;;;;;;;77.72;49.13;;;8.90;99.90;;;;;;5115293;28;20023;-81
2020/12/16 11:56:24;;;;;;;84.13;47.40;;;8.90;99.90;;;;;;5114814;28;20019;-81
2020/12/16 11:58:51;;;;;;;77.35;48.30;;;8.90;99.90;;;;;;5096880;28;20028;-81
2020/12/16 12:01:18;;;;;;;76.68;47.97;;;8.90;99.90;;;;;;5096690;28;20028;-81
2020/12/16 12:03:44;;;;;;;73.18;46.05;;;8.90;99.90;;;;;;5096560;28;20031;-81
2020/12/16 12:06:11;;;;;;;78.43;46.05;;;8.90;99.90;;;;;;5115058;28;20035;-81
2020/12/16 12:08:37;;;;;;;73.40;46.05;;;8.90;99.90;;;;;;5114575;28;20059;-81
2020/12/16 12:11:03;;;;;;;76.25;47.85;;;8.90;99.90;;;;;;5096565;28;20418;-81
2020/12/16 12:13:29;;;;;;;76.55;47.13;;;8.90;99.90;;;;;;5114537;28;20027;-81
2020/12/16 12:15:55;;;;;;;73.70;45.33;;;8.90;99.90;;;;;;5114964;28;20031;-81
2020/12/16 12:18:21;;;;;;;82.47;49.25;;;8.90;99.90;;;;;;5115022;28;20015;-81
2020/12/16 12:20:46;;;;;;;77.93;47.22;;;8.90;99.90;;;;;;5114116;28;20035;-81
2020/12/16 12:23:12;;;;;;;80.80;48.45;;;8.90;99.90;;;;;;5114658;28;20028;-81
2020/12/16 12:25:38;;;;;;;77.10;46.97;;;8.90;99.90;;;;;;5114343;28;20020;-81
2020/12/16 12:28:03;;;;;;;77.68;49.45;;;8.90;99.90;;;;;;5096886;28;20051;-80
2020/12/16 12:30:29;;;;;;;73.82;46.90;;;8.90;99.90;;;;;;5094158;28;20024;-80
2020/12/16 12:32:56;;;;;;;75.40;47.03;;;8.90;99.90;;;;;;5068398;28;20032;-81
2020/12/16 12:35:22;;;;;;;80.43;48.40;;;9.00;99.90;;;;;;5089152;28;20106;-81
2020/12/16 12:37:48;;;;;;;73.15;48.90;;;9.00;99.90;;;;;;5092887;28;20450;-81
2020/12/16 12:40:13;;;;;;;79.75;47.60;;;9.10;99.90;;;;;;5091288;28;20564;-81